sensor_id;sensor_type;location;lat;lon;timestamp;pressure;altitude;pressure_sealevel;temperature;humidity
78459;BME280;67753;42.684;23.330;2023-04-01T00:02:00;94106.81;;;12.74;63.88
78459;BME280;67753;42.684;23.330;2023-04-01T00:04:02;94108.31;;;12.82;63.56
78459;BME280;67753;42.684;23.330;2023-04-01T00:06:04;94113.34;;;12.80;63.15
78459;BME280;67753;42.684;23.330;2023-04-01T00:08:06;94111.78;;;12.79;63.56
78459;BME280;67753;42.684;23.330;2023-04-01T00:10:11;94111.41;;;12.77;63.04
78459;BME280;67753;42.684;23.330;2023-04-01T00:12:13;94110.69;;;12.66;63.42
78459;BME280;67753;42.684;23.330;2023-04-01T00:14:15;94118.00;;;12.62;63.27
78459;BME280;67753;42.684;23.330;2023-04-01T00:16:19;94115.72;;;12.57;63.46
78459;BME280;67753;42.684;23.330;2023-04-01T00:18:21;94122.59;;;12.50;63.43
78459;BME280;67753;42.684;23.330;2023-04-01T00:20:24;94115.34;;;12.47;63.60
78459;BME280;67753;42.684;23.330;2023-04-01T00:22:26;94116.84;;;12.56;63.30
78459;BME280;67753;42.684;23.330;2023-04-01T00:24:29;94113.78;;;12.57;63.15
78459;BME280;67753;42.684;23.330;2023-04-01T00:26:30;94119.16;;;12.50;63.34
78459;BME280;67753;42.684;23.330;2023-04-01T00:28:33;94116.88;;;12.52;63.66
78459;BME280;67753;42.684;23.330;2023-04-01T00:30:36;94107.28;;;12.47;63.72
78459;BME280;67753;42.684;23.330;2023-04-01T00:32:41;94108.81;;;12.48;63.70
78459;BME280;67753;42.684;23.330;2023-04-01T00:34:42;94113.78;;;12.46;63.85
78459;BME280;67753;42.684;23.330;2023-04-01T00:36:45;94105.72;;;12.46;64.43
78459;BME280;67753;42.684;23.330;2023-04-01T00:38:47;94101.50;;;12.49;64.40
78459;BME280;67753;42.684;23.330;2023-04-01T00:40:50;94098.44;;;12.50;64.40
78459;BME280;67753;42.684;23.330;2023-04-01T00:42:59;94098.41;;;12.58;64.31
78459;BME280;67753;42.684;23.330;2023-04-01T00:45:23;94095.38;;;12.41;65.44
78459;BME280;67753;42.684;23.330;2023-04-01T00:47:27;94092.00;;;12.01;66.56
78459;BME280;67753;42.684;23.330;2023-04-01T00:49:33;94085.47;;;11.99;66.78
78459;BME280;67753;42.684;23.330;2023-04-01T00:51:38;94067.78;;;12.23;67.00
78459;BME280;67753;42.684;23.330;2023-04-01T00:53:43;94064.38;;;12.19;67.39
78459;BME280;67753;42.684;23.330;2023-04-01T00:55:50;94069.34;;;12.20;66.95
78459;BME280;67753;42.684;23.330;2023-04-01T00:57:57;94067.03;;;12.08;68.01
78459;BME280;67753;42.684;23.330;2023-04-01T01:00:03;94054.78;;;12.11;68.57
78459;BME280;67753;42.684;23.330;2023-04-01T01:02:11;94055.56;;;11.97;69.10
78459;BME280;67753;42.684;23.330;2023-04-01T01:04:22;94055.53;;;11.75;69.59
78459;BME280;67753;42.684;23.330;2023-04-01T01:06:36;94045.59;;;11.55;69.94
78459;BME280;67753;42.684;23.330;2023-04-01T01:11:23;94032.94;;;11.55;70.88
78459;BME280;67753;42.684;23.330;2023-04-01T01:13:33;94027.94;;;11.46;71.00
78459;BME280;67753;42.684;23.330;2023-04-01T01:15:41;94023.34;;;11.50;70.93
78459;BME280;67753;42.684;23.330;2023-04-01T01:17:54;94022.19;;;11.51;71.40
78459;BME280;67753;42.684;23.330;2023-04-01T01:23:10;94018.75;;;11.72;70.91
78459;BME280;67753;42.684;23.330;2023-04-01T01:25:31;94025.63;;;11.81;70.01
78459;BME280;67753;42.684;23.330;2023-04-01T01:27:35;94014.94;;;11.91;69.33
78459;BME280;67753;42.684;23.330;2023-04-01T01:32:15;94006.47;;;11.71;70.60
78459;BME280;67753;42.684;23.330;2023-04-01T01:34:22;94006.84;;;11.70;70.67
78459;BME280;67753;42.684;23.330;2023-04-01T01:36:31;94004.19;;;11.70;70.76
78459;BME280;67753;42.684;23.330;2023-04-01T01:38:34;93998.81;;;11.56;70.68
78459;BME280;67753;42.684;23.330;2023-04-01T01:40:41;93999.59;;;11.52;71.10
78459;BME280;67753;42.684;23.330;2023-04-01T01:42:48;94000.34;;;11.64;70.88
78459;BME280;67753;42.684;23.330;2023-04-01T01:44:52;93996.91;;;11.45;71.25
78459;BME280;67753;42.684;23.330;2023-04-01T01:46:55;94001.88;;;11.65;70.79
78459;BME280;67753;42.684;23.330;2023-04-01T01:48:59;94001.16;;;11.39;71.01
78459;BME280;67753;42.684;23.330;2023-04-01T01:51:03;93991.91;;;11.62;71.38
78459;BME280;67753;42.684;23.330;2023-04-01T01:53:08;94001.91;;;11.43;71.25
78459;BME280;67753;42.684;23.330;2023-04-01T01:55:28;93991.94;;;11.51;70.85
78459;BME280;67753;42.684;23.330;2023-04-01T01:57:33;93989.25;;;11.58;70.79
78459;BME280;67753;42.684;23.330;2023-04-01T01:59:38;93995.00;;;11.42;69.68
78459;BME280;67753;42.684;23.330;2023-04-01T02:01:43;93994.22;;;11.42;68.43
78459;BME280;67753;42.684;23.330;2023-04-01T02:03:48;93987.34;;;11.55;66.57
78459;BME280;67753;42.684;23.330;2023-04-01T02:05:51;93987.69;;;11.75;67.23
78459;BME280;67753;42.684;23.330;2023-04-01T02:07:59;93986.91;;;11.82;67.40
78459;BME280;67753;42.684;23.330;2023-04-01T02:10:06;93983.09;;;11.86;67.28
78459;BME280;67753;42.684;23.330;2023-04-01T02:12:09;93978.09;;;11.81;67.80
78459;BME280;67753;42.684;23.330;2023-04-01T02:14:14;93978.88;;;11.92;68.01
78459;BME280;67753;42.684;23.330;2023-04-01T02:16:20;93982.72;;;11.84;68.08
78459;BME280;67753;42.684;23.330;2023-04-01T02:18:24;93978.88;;;11.85;68.11
78459;BME280;67753;42.684;23.330;2023-04-01T02:20:28;93974.66;;;11.66;69.72
78459;BME280;67753;42.684;23.330;2023-04-01T02:22:34;93969.66;;;11.79;69.38
78459;BME280;67753;42.684;23.330;2023-04-01T02:24:38;93960.09;;;11.64;68.94
78459;BME280;67753;42.684;23.330;2023-04-01T02:26:43;93974.25;;;11.75;69.12
78459;BME280;67753;42.684;23.330;2023-04-01T02:28:48;93975.81;;;11.87;69.05
78459;BME280;67753;42.684;23.330;2023-04-01T02:30:52;93975.06;;;11.86;68.80
78459;BME280;67753;42.684;23.330;2023-04-01T02:32:55;93977.34;;;11.91;68.83
78459;BME280;67753;42.684;23.330;2023-04-01T02:34:57;93978.50;;;11.90;67.86
78459;BME280;67753;42.684;23.330;2023-04-01T02:37:03;93983.47;;;11.74;68.83
78459;BME280;67753;42.684;23.330;2023-04-01T02:39:06;93971.97;;;11.73;69.30
78459;BME280;67753;42.684;23.330;2023-04-01T02:41:09;93984.25;;;11.78;69.53
78459;BME280;67753;42.684;23.330;2023-04-01T02:43:12;93976.56;;;11.66;69.37
78459;BME280;67753;42.684;23.330;2023-04-01T02:45:14;93986.56;;;11.83;69.03
78459;BME280;67753;42.684;23.330;2023-04-01T02:47:16;93976.59;;;11.59;69.22
78459;BME280;67753;42.684;23.330;2023-04-01T02:49:18;93984.22;;;11.71;68.64
78459;BME280;67753;42.684;23.330;2023-04-01T02:51:21;93988.47;;;11.86;68.65
78459;BME280;67753;42.684;23.330;2023-04-01T02:53:22;93991.13;;;11.93;69.07
78459;BME280;67753;42.684;23.330;2023-04-01T02:55:24;94001.88;;;12.00;69.09
78459;BME280;67753;42.684;23.330;2023-04-01T02:57:26;93996.53;;;11.86;69.02
78459;BME280;67753;42.684;23.330;2023-04-01T02:59:30;94006.47;;;11.89;69.23
78459;BME280;67753;42.684;23.330;2023-04-01T03:01:33;94008.72;;;12.09;68.93
78459;BME280;67753;42.684;23.330;2023-04-01T03:03:35;94004.16;;;12.06;68.98
78459;BME280;67753;42.684;23.330;2023-04-01T03:05:37;94004.13;;;12.13;68.45
78459;BME280;67753;42.684;23.330;2023-04-01T03:07:40;94011.06;;;12.07;68.31
78459;BME280;67753;42.684;23.330;2023-04-01T03:09:42;94019.47;;;12.09;68.31
78459;BME280;67753;42.684;23.330;2023-04-01T03:11:43;94021.00;;;12.17;68.14
78459;BME280;67753;42.684;23.330;2023-04-01T03:13:46;94017.19;;;12.03;68.51
78459;BME280;67753;42.684;23.330;2023-04-01T03:15:52;94021.75;;;12.14;68.04
78459;BME280;67753;42.684;23.330;2023-04-01T03:17:54;94023.72;;;12.02;68.21
78459;BME280;67753;42.684;23.330;2023-04-01T03:19:56;94013.38;;;12.01;68.14
78459;BME280;67753;42.684;23.330;2023-04-01T03:21:58;94021.03;;;12.02;68.27
78459;BME280;67753;42.684;23.330;2023-04-01T03:24:00;94014.09;;;12.09;67.81
78459;BME280;67753;42.684;23.330;2023-04-01T03:26:02;94011.81;;;12.07;68.10
78459;BME280;67753;42.684;23.330;2023-04-01T03:28:04;94040.63;;;11.92;68.12
78459;BME280;67753;42.684;23.330;2023-04-01T03:30:08;94031.00;;;11.38;69.64
78459;BME280;67753;42.684;23.330;2023-04-01T03:32:11;94023.75;;;11.45;70.32
78459;BME280;67753;42.684;23.330;2023-04-01T03:34:13;94023.38;;;11.40;69.66
78459;BME280;67753;42.684;23.330;2023-04-01T03:36:15;94029.50;;;11.40;70.45
78459;BME280;67753;42.684;23.330;2023-04-01T03:38:16;94011.88;;;11.39;71.52
78459;BME280;67753;42.684;23.330;2023-04-01T03:40:18;94013.38;;;11.69;69.76
78459;BME280;67753;42.684;23.330;2023-04-01T03:42:20;94010.72;;;11.90;69.41
78459;BME280;67753;42.684;23.330;2023-04-01T03:44:22;94000.34;;;11.85;69.79
78459;BME280;67753;42.684;23.330;2023-04-01T03:46:26;93987.31;;;11.87;70.10
78459;BME280;67753;42.684;23.330;2023-04-01T03:48:31;93980.78;;;11.88;71.48
78459;BME280;67753;42.684;23.330;2023-04-01T03:50:34;93958.94;;;11.83;71.40
78459;BME280;67753;42.684;23.330;2023-04-01T03:52:37;93952.78;;;11.89;71.51
78459;BME280;67753;42.684;23.330;2023-04-01T03:54:38;93935.88;;;11.99;70.91
78459;BME280;67753;42.684;23.330;2023-04-01T03:56:40;93926.34;;;11.91;71.42
78459;BME280;67753;42.684;23.330;2023-04-01T03:58:42;93925.19;;;11.82;72.11
78459;BME280;67753;42.684;23.330;2023-04-01T04:00:45;93919.09;;;11.67;72.43
78459;BME280;67753;42.684;23.330;2023-04-01T04:02:47;93915.22;;;11.75;72.04
78459;BME280;67753;42.684;23.330;2023-04-01T04:04:51;93907.16;;;11.75;72.26
78459;BME280;67753;42.684;23.330;2023-04-01T04:06:55;93898.72;;;11.80;72.20
78459;BME280;67753;42.684;23.330;2023-04-01T04:08:57;93898.38;;;11.67;72.53
78459;BME280;67753;42.684;23.330;2023-04-01T04:10:59;93891.47;;;11.70;72.36
78459;BME280;67753;42.684;23.330;2023-04-01T04:13:01;93884.56;;;11.69;72.46
78459;BME280;67753;42.684;23.330;2023-04-01T04:15:04;93889.16;;;11.86;71.50
78459;BME280;67753;42.684;23.330;2023-04-01T04:17:06;93874.59;;;11.76;71.70
78459;BME280;67753;42.684;23.330;2023-04-01T04:19:12;93888.38;;;11.71;71.51
78459;BME280;67753;42.684;23.330;2023-04-01T04:21:15;93887.66;;;11.57;72.04
78459;BME280;67753;42.684;23.330;2023-04-01T04:23:18;93880.72;;;11.70;71.24
78459;BME280;67753;42.684;23.330;2023-04-01T04:25:20;93883.00;;;11.75;71.06
78459;BME280;67753;42.684;23.330;2023-04-01T04:27:21;93878.44;;;11.68;70.99
78459;BME280;67753;42.684;23.330;2023-04-01T04:29:26;93859.25;;;11.70;70.34
78459;BME280;67753;42.684;23.330;2023-04-01T04:31:28;93863.06;;;11.76;70.35
78459;BME280;67753;42.684;23.330;2023-04-01T04:33:30;93866.16;;;11.78;70.05
78459;BME280;67753;42.684;23.330;2023-04-01T04:35:32;93865.38;;;11.88;69.47
78459;BME280;67753;42.684;23.330;2023-04-01T04:37:36;93861.59;;;11.68;68.83
78459;BME280;67753;42.684;23.330;2023-04-01T04:39:38;93859.25;;;11.70;69.68
78459;BME280;67753;42.684;23.330;2023-04-01T04:41:41;93863.09;;;11.69;69.11
78459;BME280;67753;42.684;23.330;2023-04-01T04:43:49;93860.00;;;11.88;68.91
78459;BME280;67753;42.684;23.330;2023-04-01T04:45:51;93865.38;;;11.88;68.16
78459;BME280;67753;42.684;23.330;2023-04-01T04:47:53;93857.75;;;11.69;68.04
78459;BME280;67753;42.684;23.330;2023-04-01T04:49:55;93857.75;;;11.62;68.28
78459;BME280;67753;42.684;23.330;2023-04-01T04:51:57;93857.75;;;11.69;68.29
78459;BME280;67753;42.684;23.330;2023-04-01T04:54:03;93848.53;;;11.77;68.56
78459;BME280;67753;42.684;23.330;2023-04-01T04:56:06;93829.38;;;11.68;68.22
78459;BME280;67753;42.684;23.330;2023-04-01T04:58:10;93828.94;;;11.80;67.59
78459;BME280;67753;42.684;23.330;2023-04-01T05:00:13;93840.03;;;11.96;66.83
78459;BME280;67753;42.684;23.330;2023-04-01T05:02:15;93856.16;;;11.89;65.48
78459;BME280;67753;42.684;23.330;2023-04-01T05:04:17;93848.72;;;11.06;67.42
78459;BME280;67753;42.684;23.330;2023-04-01T05:06:19;93846.03;;;10.98;68.27
78459;BME280;67753;42.684;23.330;2023-04-01T05:08:21;93826.47;;;11.16;68.54
78459;BME280;67753;42.684;23.330;2023-04-01T05:10:25;93816.09;;;11.21;68.02
78459;BME280;67753;42.684;23.330;2023-04-01T05:12:27;93819.53;;;11.36;67.64
78459;BME280;67753;42.684;23.330;2023-04-01T05:14:29;93814.19;;;11.15;67.74
78459;BME280;67753;42.684;23.330;2023-04-01T05:16:31;93817.66;;;11.15;67.41
78459;BME280;67753;42.684;23.330;2023-04-01T05:18:32;93818.78;;;11.25;67.46
78459;BME280;67753;42.684;23.330;2023-04-01T05:20:34;93814.56;;;11.24;67.34
78459;BME280;67753;42.684;23.330;2023-04-01T05:22:39;93799.59;;;11.34;66.90
78459;BME280;67753;42.684;23.330;2023-04-01T05:24:41;93791.53;;;11.44;67.12
78459;BME280;67753;42.684;23.330;2023-04-01T05:26:44;93793.84;;;11.35;67.75
78459;BME280;67753;42.684;23.330;2023-04-01T05:28:45;93796.88;;;11.48;67.54
78459;BME280;67753;42.684;23.330;2023-04-01T05:30:49;93798.06;;;11.36;67.56
78459;BME280;67753;42.684;23.330;2023-04-01T05:32:51;93783.50;;;11.37;68.76
78459;BME280;67753;42.684;23.330;2023-04-01T05:34:53;93798.78;;;11.47;68.30
78459;BME280;67753;42.684;23.330;2023-04-01T05:36:56;93809.66;;;10.97;68.01
78459;BME280;67753;42.684;23.330;2023-04-01T05:38:58;93803.91;;;11.03;68.36
78459;BME280;67753;42.684;23.330;2023-04-01T05:41:00;93801.19;;;11.10;68.25
78459;BME280;67753;42.684;23.330;2023-04-01T05:43:04;93808.03;;;11.32;67.71
78459;BME280;67753;42.684;23.330;2023-04-01T05:45:07;93799.94;;;11.54;67.62
78459;BME280;67753;42.684;23.330;2023-04-01T05:47:09;93797.97;;;11.65;66.88
78459;BME280;67753;42.684;23.330;2023-04-01T05:49:12;93800.19;;;11.84;66.21
78459;BME280;67753;42.684;23.330;2023-04-01T05:51:14;93797.75;;;12.08;65.17
78459;BME280;67753;42.684;23.330;2023-04-01T05:53:17;93804.63;;;12.19;64.47
78459;BME280;67753;42.684;23.330;2023-04-01T05:55:19;93791.44;;;12.36;63.94
78459;BME280;67753;42.684;23.330;2023-04-01T05:57:21;93797.47;;;12.50;63.83
78459;BME280;67753;42.684;23.330;2023-04-01T05:59:24;93790.47;;;12.64;63.02
78459;BME280;67753;42.684;23.330;2023-04-01T06:01:28;93793.09;;;12.71;63.26
78459;BME280;67753;42.684;23.330;2023-04-01T06:03:30;93792.47;;;12.97;62.08
78459;BME280;67753;42.684;23.330;2023-04-01T06:05:38;93794.41;;;13.38;59.89
78459;BME280;67753;42.684;23.330;2023-04-01T06:07:40;93797.34;;;13.81;59.01
78459;BME280;67753;42.684;23.330;2023-04-01T06:09:43;93798.03;;;14.43;57.40
78459;BME280;67753;42.684;23.330;2023-04-01T06:12:00;93785.94;;;14.59;56.12
78459;BME280;67753;42.684;23.330;2023-04-01T06:14:15;93794.59;;;14.93;55.36
78459;BME280;67753;42.684;23.330;2023-04-01T06:16:33;93796.50;;;14.96;54.78
78459;BME280;67753;42.684;23.330;2023-04-01T06:18:49;93798.38;;;15.19;53.68
78459;BME280;67753;42.684;23.330;2023-04-01T06:21:01;93795.56;;;15.26;54.26
78459;BME280;67753;42.684;23.330;2023-04-01T06:23:32;93791.44;;;14.98;54.44
78459;BME280;67753;42.684;23.330;2023-04-01T06:25:44;93801.03;;;15.23;53.42
78459;BME280;67753;42.684;23.330;2023-04-01T06:28:00;93794.94;;;14.72;53.65
78459;BME280;67753;42.684;23.330;2023-04-01T06:30:22;93805.13;;;14.61;53.97
78459;BME280;67753;42.684;23.330;2023-04-01T06:32:40;93803.25;;;15.04;52.99
78459;BME280;67753;42.684;23.330;2023-04-01T06:35:11;93783.09;;;15.32;52.73
78459;BME280;67753;42.684;23.330;2023-04-01T06:37:30;93784.44;;;15.44;53.13
78459;BME280;67753;42.684;23.330;2023-04-01T06:39:58;93776.91;;;14.69;54.53
78459;BME280;67753;42.684;23.330;2023-04-01T06:42:18;93774.53;;;14.94;54.14
78459;BME280;67753;42.684;23.330;2023-04-01T06:44:25;93775.06;;;15.09;55.41
78459;BME280;67753;42.684;23.330;2023-04-01T06:46:40;93782.75;;;15.11;55.29
78459;BME280;67753;42.684;23.330;2023-04-01T06:49:02;93777.59;;;14.96;54.78
78459;BME280;67753;42.684;23.330;2023-04-01T06:51:18;93772.63;;;15.15;54.03
78459;BME280;67753;42.684;23.330;2023-04-01T06:53:29;93755.63;;;15.18;54.16
78459;BME280;67753;42.684;23.330;2023-04-01T06:55:37;93752.72;;;15.28;54.67
78459;BME280;67753;42.684;23.330;2023-04-01T06:57:43;93745.91;;;15.00;55.35
78459;BME280;67753;42.684;23.330;2023-04-01T06:59:48;93744.88;;;14.94;55.49
78459;BME280;67753;42.684;23.330;2023-04-01T07:01:52;93741.84;;;14.92;55.75
78459;BME280;67753;42.684;23.330;2023-04-01T07:04:03;93745.00;;;14.87;56.11
78459;BME280;67753;42.684;23.330;2023-04-01T07:06:10;93741.09;;;15.12;55.19
78459;BME280;67753;42.684;23.330;2023-04-01T07:08:18;93755.94;;;15.43;55.26
78459;BME280;67753;42.684;23.330;2023-04-01T07:10:25;93761.25;;;15.47;54.43
78459;BME280;67753;42.684;23.330;2023-04-01T07:12:38;93752.88;;;15.81;54.15
78459;BME280;67753;42.684;23.330;2023-04-01T07:14:44;93739.78;;;16.16;53.30
78459;BME280;67753;42.684;23.330;2023-04-01T07:16:49;93745.75;;;15.91;53.29
78459;BME280;67753;42.684;23.330;2023-04-01T07:18:56;93742.38;;;15.67;54.19
78459;BME280;67753;42.684;23.330;2023-04-01T07:21:01;93733.00;;;15.71;54.77
78459;BME280;67753;42.684;23.330;2023-04-01T07:23:06;93742.63;;;15.52;55.44
78459;BME280;67753;42.684;23.330;2023-04-01T07:25:12;93743.13;;;16.03;54.05
78459;BME280;67753;42.684;23.330;2023-04-01T07:27:14;93748.66;;;16.16;54.40
78459;BME280;67753;42.684;23.330;2023-04-01T07:29:16;93748.03;;;16.08;54.68
78459;BME280;67753;42.684;23.330;2023-04-01T07:31:34;93762.59;;;16.31;53.75
78459;BME280;67753;42.684;23.330;2023-04-01T07:33:45;93760.56;;;16.19;54.15
78459;BME280;67753;42.684;23.330;2023-04-01T07:35:55;93753.25;;;15.99;54.79
78459;BME280;67753;42.684;23.330;2023-04-01T07:38:12;93762.72;;;15.91;55.16
78459;BME280;67753;42.684;23.330;2023-04-01T07:40:24;93755.53;;;15.65;55.63
78459;BME280;67753;42.684;23.330;2023-04-01T07:42:34;93750.66;;;15.76;56.10
78459;BME280;67753;42.684;23.330;2023-04-01T07:44:46;93739.56;;;15.50;55.74
78459;BME280;67753;42.684;23.330;2023-04-01T07:47:02;93730.56;;;15.37;56.14
78459;BME280;67753;42.684;23.330;2023-04-01T07:49:10;93737.66;;;15.31;56.56
78459;BME280;67753;42.684;23.330;2023-04-01T07:51:19;93734.34;;;15.43;56.03
78459;BME280;67753;42.684;23.330;2023-04-01T07:53:27;93730.50;;;15.41;56.66
78459;BME280;67753;42.684;23.330;2023-04-01T07:55:39;93725.09;;;15.60;56.51
78459;BME280;67753;42.684;23.330;2023-04-01T07:57:49;93735.91;;;15.60;56.91
78459;BME280;67753;42.684;23.330;2023-04-01T07:59:59;93735.56;;;15.58;56.41
78459;BME280;67753;42.684;23.330;2023-04-01T08:02:14;93725.50;;;15.79;56.28
78459;BME280;67753;42.684;23.330;2023-04-01T08:04:35;93729.91;;;15.73;55.78
78459;BME280;67753;42.684;23.330;2023-04-01T08:06:45;93716.88;;;15.68;56.17
78459;BME280;67753;42.684;23.330;2023-04-01T08:09:00;93725.72;;;15.88;55.98
78459;BME280;67753;42.684;23.330;2023-04-01T08:11:15;93728.28;;;16.12;54.99
78459;BME280;67753;42.684;23.330;2023-04-01T08:13:29;93722.81;;;15.79;54.31
78459;BME280;67753;42.684;23.330;2023-04-01T08:15:46;93714.59;;;16.02;54.83
78459;BME280;67753;42.684;23.330;2023-04-01T08:18:01;93700.97;;;15.90;54.88
78459;BME280;67753;42.684;23.330;2023-04-01T08:20:16;93704.97;;;16.01;54.10
78459;BME280;67753;42.684;23.330;2023-04-01T08:22:26;93696.44;;;16.68;52.77
78459;BME280;67753;42.684;23.330;2023-04-01T08:24:34;93683.06;;;17.23;52.29
78459;BME280;67753;42.684;23.330;2023-04-01T08:26:41;93693.66;;;17.30;50.59
78459;BME280;67753;42.684;23.330;2023-04-01T08:28:51;93691.97;;;17.07;51.57
78459;BME280;67753;42.684;23.330;2023-04-01T08:30:57;93677.81;;;17.16;51.79
78459;BME280;67753;42.684;23.330;2023-04-01T08:33:09;93679.38;;;17.29;51.22
78459;BME280;67753;42.684;23.330;2023-04-01T08:35:20;93676.03;;;17.80;49.52
78459;BME280;67753;42.684;23.330;2023-04-01T08:37:30;93670.19;;;17.94;49.91
78459;BME280;67753;42.684;23.330;2023-04-01T08:39:38;93645.25;;;17.19;51.04
78459;BME280;67753;42.684;23.330;2023-04-01T08:42:07;93622.91;;;16.57;52.45
78459;BME280;67753;42.684;23.330;2023-04-01T08:44:39;93618.31;;;16.08;53.81
78459;BME280;67753;42.684;23.330;2023-04-01T08:50:06;93621.63;;;16.16;54.55
78459;BME280;67753;42.684;23.330;2023-04-01T08:52:28;93618.25;;;16.57;53.02
78459;BME280;67753;42.684;23.330;2023-04-01T08:57:08;93613.59;;;17.16;51.84
78459;BME280;67753;42.684;23.330;2023-04-01T08:59:36;93622.28;;;17.24;50.37
78459;BME280;67753;42.684;23.330;2023-04-01T09:01:58;93632.88;;;17.98;49.39
78459;BME280;67753;42.684;23.330;2023-04-01T09:04:21;93639.19;;;18.90;46.87
78459;BME280;67753;42.684;23.330;2023-04-01T09:06:33;93636.06;;;18.92;45.21
78459;BME280;67753;42.684;23.330;2023-04-01T09:08:48;93628.84;;;19.20;45.58
78459;BME280;67753;42.684;23.330;2023-04-01T09:11:02;93630.09;;;19.28;44.80
78459;BME280;67753;42.684;23.330;2023-04-01T09:13:48;93637.41;;;19.40;43.79
78459;BME280;67753;42.684;23.330;2023-04-01T09:19:05;93631.66;;;19.91;43.43
78459;BME280;67753;42.684;23.330;2023-04-01T09:21:29;93624.81;;;19.55;43.27
78459;BME280;67753;42.684;23.330;2023-04-01T09:23:47;93628.69;;;19.45;44.43
78459;BME280;67753;42.684;23.330;2023-04-01T09:26:20;93621.59;;;19.17;42.85
78459;BME280;67753;42.684;23.330;2023-04-01T09:28:46;93609.97;;;18.59;43.39
78459;BME280;67753;42.684;23.330;2023-04-01T09:31:05;93607.47;;;18.65;43.65
78459;BME280;67753;42.684;23.330;2023-04-01T09:34:00;93599.91;;;18.82;46.31
78459;BME280;67753;42.684;23.330;2023-04-01T09:36:18;93594.00;;;18.96;44.11
78459;BME280;67753;42.684;23.330;2023-04-01T09:38:29;93596.00;;;18.83;45.66
78459;BME280;67753;42.684;23.330;2023-04-01T09:40:37;93587.03;;;18.95;43.96
78459;BME280;67753;42.684;23.330;2023-04-01T09:42:56;93582.34;;;19.18;43.71
78459;BME280;67753;42.684;23.330;2023-04-01T09:45:07;93587.25;;;19.32;44.21
78459;BME280;67753;42.684;23.330;2023-04-01T09:47:21;93584.94;;;19.52;42.64
78459;BME280;67753;42.684;23.330;2023-04-01T09:49:52;93582.53;;;19.54;44.37
78459;BME280;67753;42.684;23.330;2023-04-01T09:52:10;93580.06;;;20.19;44.12
78459;BME280;67753;42.684;23.330;2023-04-01T09:54:26;93571.91;;;20.28;43.34
78459;BME280;67753;42.684;23.330;2023-04-01T10:02:23;93541.06;;;20.22;41.78
78459;BME280;67753;42.684;23.330;2023-04-01T10:10:06;93543.03;;;20.30;42.33
78459;BME280;67753;42.684;23.330;2023-04-01T10:12:49;93547.44;;;20.55;41.31
78459;BME280;67753;42.684;23.330;2023-04-01T10:18:02;93537.41;;;19.97;41.38
78459;BME280;67753;42.684;23.330;2023-04-01T10:20:20;93536.50;;;20.00;42.15
78459;BME280;67753;42.684;23.330;2023-04-01T10:22:50;93527.28;;;19.98;42.27
78459;BME280;67753;42.684;23.330;2023-04-01T10:25:19;93524.44;;;20.01;42.05
78459;BME280;67753;42.684;23.330;2023-04-01T10:27:58;93527.16;;;20.01;42.66
78459;BME280;67753;42.684;23.330;2023-04-01T10:35:50;93528.72;;;19.31;44.17
78459;BME280;67753;42.684;23.330;2023-04-01T10:38:33;93529.28;;;19.26;44.52
78459;BME280;67753;42.684;23.330;2023-04-01T10:41:00;93523.84;;;19.26;44.14
78459;BME280;67753;42.684;23.330;2023-04-01T10:43:28;93507.72;;;19.00;44.63
78459;BME280;67753;42.684;23.330;2023-04-01T10:45:59;93500.53;;;18.62;45.05
78459;BME280;67753;42.684;23.330;2023-04-01T10:48:19;93499.66;;;18.65;45.76
78459;BME280;67753;42.684;23.330;2023-04-01T10:53:30;93491.66;;;18.40;46.48
78459;BME280;67753;42.684;23.330;2023-04-01T10:56:03;93493.75;;;18.36;46.71
78459;BME280;67753;42.684;23.330;2023-04-01T11:01:13;93479.47;;;18.23;46.66
78459;BME280;67753;42.684;23.330;2023-04-01T11:03:51;93473.56;;;18.37;46.84
78459;BME280;67753;42.684;23.330;2023-04-01T11:09:28;93471.63;;;18.03;47.30
78459;BME280;67753;42.684;23.330;2023-04-01T11:11:59;93460.34;;;18.04;46.88
78459;BME280;67753;42.684;23.330;2023-04-01T11:25:11;93465.38;;;17.93;48.24
78459;BME280;67753;42.684;23.330;2023-04-01T11:27:36;93478.78;;;17.97;47.94
78459;BME280;67753;42.684;23.330;2023-04-01T11:30:05;93509.97;;;16.90;49.18
78459;BME280;67753;42.684;23.330;2023-04-01T11:32:23;93503.56;;;16.84;48.29
78459;BME280;67753;42.684;23.330;2023-04-01T11:34:39;93551.50;;;16.09;53.78
78459;BME280;67753;42.684;23.330;2023-04-01T11:36:52;93536.44;;;15.63;61.45
78459;BME280;67753;42.684;23.330;2023-04-01T11:39:11;93557.13;;;15.33;55.41
78459;BME280;67753;42.684;23.330;2023-04-01T11:41:23;93555.41;;;14.27;67.77
78459;BME280;67753;42.684;23.330;2023-04-01T11:43:31;93421.88;;;12.92;100.00
78459;BME280;67753;42.684;23.330;2023-04-01T11:45:39;93381.28;;;12.60;100.00
78459;BME280;67753;42.684;23.330;2023-04-01T11:47:58;93446.19;;;12.58;100.00
78459;BME280;67753;42.684;23.330;2023-04-01T11:50:21;93403.69;;;11.88;100.00
78459;BME280;67753;42.684;23.330;2023-04-01T11:52:40;93403.69;;;11.88;100.00
78459;BME280;67753;42.684;23.330;2023-04-01T11:55:02;65742.56;;;-144.27;100.00
78459;BME280;67753;42.684;23.330;2023-04-01T11:59:47;93322.16;;;10.62;100.00
78459;BME280;67753;42.684;23.330;2023-04-01T12:01:59;93329.75;;;10.70;100.00
78459;BME280;67753;42.684;23.330;2023-04-01T12:04:37;93337.53;;;10.99;100.00
78459;BME280;67753;42.684;23.330;2023-04-01T12:06:48;93346.25;;;10.62;100.00
78459;BME280;67753;42.684;23.330;2023-04-01T12:08:59;93324.38;;;10.74;100.00
78459;BME280;67753;42.684;23.330;2023-04-01T12:11:11;93349.97;;;10.79;100.00
78459;BME280;67753;42.684;23.330;2023-04-01T12:13:28;93356.56;;;10.67;100.00
78459;BME280;67753;42.684;23.330;2023-04-01T12:15:42;93335.75;;;10.82;100.00
78459;BME280;67753;42.684;23.330;2023-04-01T12:17:51;93332.66;;;11.28;100.00